EYKAEYVI

Guest
Details From EYKA - Kaunas Intl
To EYVI - VILNIUS INTL
Flight Number -
Tags generated
Created
Modified
Stats Distance 46 nm / 85 km
Max Altitude 4,900 ft / 1,494 m
Waypoints 3
Social Downloads 2
Likes 0
Share VATSIM

Download

Looking for another format? Having issues loading an existing format? Contact us
Advertisement - Login to hide

Notes

Basic altitude profile: - Ascent Rate: 2500ft/min - Ascent Speed: 250kts - Cruise Altitude: 35000ft - Cruise Speed: 420kts - Descent Rate: 1500ft/min - Descent Speed: 250kts Options: - Use NATs: yes - Use PACOTS: yes - Use low airways: yes - Use high airways: no

Route

EYKA ELEKA EYVI

ID Type Via Altitude Latitude Longitude Leg Dist Tot Dist Heading (true) Name
O EYKA APT - 0 ft / 0 m 54.96388˚ 24.08400˚ - 0 nm - Kaunas Intl
ELEKA FIX - 4,900 ft / 1,494 m 54.80056˚ 24.68889˚ 23 nm 23 nm 115° / 115° -
O EYVI APT - 0 ft / 0 m 54.63417˚ 25.28580˚ 22 nm 46 nm 116° / 116° VILNIUS INTL

Altitude Profile

Advertisement - Login to hide

EYKA

Details ICAO EYKA (KUN)
Name Kaunas Intl
Region Lithuania
Timezone Europe/Vilnius (UTC+2.0)
Stats Elevation 256 ft / 78 m (AMSL)
Location 54.963881° 24.084001°
Runways 1
Magnetic Variation 7.208° E

METAR

EYKA 110420Z 14011KT 9999 SCT021 OVC100 M01/M05 Q0995 R08/1///95

Decode

TAF

Not found

Departure Runways

ID Width Length Bearing (true) Bearing (mag) Surface Threshold Offset Overrun Length
08 148 ft / 45 m 10,309 ft / 3,142 m 85.05° 77.84° Asphalt 1,116 ft / 340 m 240 ft / 73 m
26 148 ft / 45 m 10,309 ft / 3,142 m 265.09° 257.88° Asphalt 789 ft / 240 m 240 ft / 73 m

EYVI

Details ICAO EYVI (VNO)
Name VILNIUS INTL
Region Lithuania
Timezone Europe/Vilnius (UTC+2.0)
Stats Elevation 646 ft / 197 m (AMSL)
Location 54.634166° 25.285796°
Runways 1
Magnetic Variation 7.469° E

METAR

EYVI 110420Z 14011KT CAVOK M03/M05 Q0996 R19/2///95 NOSIG

Decode

TAF

TAF TAF EYVI 102306Z 1100/1124 15008KT 4000 BR OVC015 TEMPO 1100/1102 BKN004 BECMG 1102/1103 2500 SN BKN004 OVC010 TEMPO 1104/1108 15010G20KT 0800 +SN OVC003 TEMPO 1108/1112 16012G22KT 1500 SNRA FZRA OVC005 BECMG 1113/1114 5000 BR OVC010 TEMPO 1116/1124 BKN003

Decode

Destination Runways

ID Width Length Bearing (true) Bearing (mag) Surface Threshold Offset Overrun Length
02 164 ft / 50 m 8,210 ft / 2,502 m 21.89° 14.42° Asphalt 0 ft / 0 m 151 ft / 46 m
20 164 ft / 50 m 8,210 ft / 2,502 m 201.91° 194.44° Asphalt 0 ft / 0 m 0 ft / 0 m

Approach Navaids

Runway Type Ident Frequency Range Bearing (true) Bearing (mag) Slope Elevation
02 Localiser IAV 110.50 MHz 18 nm / 33 km 21.88° 14.41° - 646 ft / 197 m (AMSL)
02 Glidescope IAV 110.50 MHz 10 nm / 19 km 21.90° 14.43° 2.67° 646 ft / 197 m (AMSL)
20 Localiser IBK 109.10 MHz 18 nm / 33 km 201.87° 194.40° - 646 ft / 197 m (AMSL)
20 Glidescope IBK 109.10 MHz 10 nm / 19 km 201.90° 194.43° 3.00° 646 ft / 197 m (AMSL)
20 DME IBK 109.10 MHz 18 nm / 33 km - - - 651 ft / 198 m (AMSL)

Popular Alternatives